Time;durP1;ratioP1;P1;durP2;ratioP2;P2;SDS_P1;SDS_P2;PMS_P1;PMS_P2;Temp;Humidity;BMP_temperature;BMP_pressure;BME280_temperature;BME280_humidity;BME280_pressure;Samples;Min_cycle;Max_cycle;Signal;HPM_P1;HPM_P2
2022/06/03 00:01:03;;;;;;;22.05;8.50;;;;;;;11.75;71.64;101763.63;5069856;28;20024;-77
2022/06/03 00:03:34;;;;;;;20.25;8.43;;;;;;;11.70;72.67;101760.38;5054337;28;20025;-77
2022/06/03 00:06:24;;;;;;;19.35;8.02;;;;;;;11.68;72.40;101760.47;5078958;28;20020;-77
2022/06/03 00:08:59;;;;;;;18.58;8.43;;;;;;;11.63;73.01;101762.56;5057657;28;20041;-77
2022/06/03 00:12:00;;;;;;;19.65;8.30;;;;;;;11.61;72.53;101761.81;5053016;28;20135;-77
2022/06/03 00:14:40;;;;;;;18.20;8.32;;;;;;;11.56;72.58;101765.75;5054672;28;20337;-77
2022/06/03 00:17:15;;;;;;;19.17;8.45;;;;;;;11.50;73.08;101761.63;5066907;28;20020;-77
2022/06/03 00:20:09;;;;;;;19.42;8.70;;;;;;;11.51;73.20;101761.53;5071386;28;20029;-77
2022/06/03 00:23:18;;;;;;;19.13;8.98;;;;;;;11.49;73.46;101760.75;5058380;28;20214;-77
2022/06/03 00:26:18;;;;;;;18.75;8.32;;;;;;;11.48;73.52;101758.13;5052942;28;20036;-77
2022/06/03 00:29:00;;;;;;;28.10;8.48;;;;;;;11.42;73.99;101750.47;5060362;28;20472;-77
2022/06/03 00:31:28;;;;;;;19.98;9.18;;;;;;;11.39;74.25;101759.59;5069399;28;20488;-77
2022/06/03 00:34:12;;;;;;;18.65;8.55;;;;;;;11.37;73.65;101756.13;5066373;28;20037;-78
2022/06/03 00:37:00;;;;;;;17.13;8.15;;;;;;;11.36;73.70;101765.16;5057753;28;20037;-78
2022/06/03 00:39:38;;;;;;;20.58;9.05;;;;;;;11.31;75.05;101751.13;5068560;28;20028;-77
2022/06/03 00:42:13;;;;;;;21.02;8.48;;;;;;;11.31;74.30;101761.91;5058078;28;20436;-77
2022/06/03 00:44:58;;;;;;;19.27;8.27;;;;;;;11.27;74.16;101758.50;5059004;28;20078;-77
2022/06/03 00:47:32;;;;;;;20.30;8.75;;;;;;;11.20;74.51;101759.88;5055428;28;20031;-77
2022/06/03 00:50:31;;;;;;;18.23;8.43;;;;;;;11.21;74.34;101756.22;5078303;28;20036;-77
2022/06/03 00:53:25;;;;;;;17.43;7.87;;;;;;;11.22;74.59;101757.09;5055547;28;20055;-77
2022/06/03 00:56:16;;;;;;;19.23;8.70;;;;;;;11.12;75.13;101741.50;5066424;28;20409;-77
2022/06/03 00:58:59;;;;;;;18.45;8.48;;;;;;;11.14;75.31;101750.34;4981251;28;20043;-77
2022/06/03 01:01:25;;;;;;;20.05;9.40;;;;;;;11.12;75.37;101756.78;4982482;28;20113;-76
2022/06/03 01:04:02;;;;;;;19.25;8.80;;;;;;;11.12;75.45;101749.56;4987485;28;20185;-75
2022/06/03 01:06:46;;;;;;;18.40;8.25;;;;;;;11.10;75.14;101746.13;4979537;28;20037;-76
2022/06/03 01:09:33;;;;;;;19.73;8.50;;;;;;;11.10;75.23;101746.13;4967632;28;20359;-76
2022/06/03 01:12:20;;;;;;;22.02;8.25;;;;;;;11.06;76.66;101741.03;4988291;28;20054;-75
2022/06/03 01:15:05;;;;;;;19.60;8.65;;;;;;;11.13;75.44;101745.06;4977515;28;20050;-75
2022/06/03 01:17:59;;;;;;;19.33;8.68;;;;;;;11.14;75.34;101736.91;4975597;28;20384;-75
2022/06/03 01:20:39;;;;;;;18.30;8.40;;;;;;;11.17;75.97;101735.81;4981490;28;20486;-75
2022/06/03 01:23:10;;;;;;;19.40;9.00;;;;;;;11.14;76.57;101723.44;4975976;28;20526;-75
2022/06/03 01:26:09;;;;;;;19.70;9.15;;;;;;;11.17;75.76;101725.94;4971810;28;20037;-76
2022/06/03 01:29:05;;;;;;;18.75;8.73;;;;;;;11.22;75.59;101719.44;4971618;28;20137;-76
2022/06/03 01:31:56;;;;;;;19.20;8.85;;;;;;;11.18;75.58;101718.72;4967109;28;20478;-75
2022/06/03 01:34:39;;;;;;;20.00;8.88;;;;;;;11.18;76.52;101716.03;4987973;28;20125;-75
2022/06/03 01:37:12;;;;;;;19.67;9.05;;;;;;;11.20;76.16;101719.53;5052698;28;20063;-75
2022/06/03 01:40:17;;;;;;;21.35;9.40;;;;;;;11.27;75.38;101717.28;5051993;28;20378;-75
2022/06/03 01:43:02;;;;;;;19.95;8.88;;;;;;;11.24;75.86;101712.09;5013351;28;20040;-75
2022/06/03 01:45:47;;;;;;;19.10;8.52;;;;;;;11.23;76.92;101705.00;5050755;28;20091;-75
2022/06/03 01:48:34;;;;;;;18.80;8.45;;;;;;;11.28;75.56;101706.44;5068440;28;20041;-75
2022/06/03 01:51:37;;;;;;;19.92;9.75;;;;;;;11.30;75.62;101709.03;5052171;28;20033;-76
2022/06/03 01:54:17;;;;;;;20.33;9.75;;;;;;;11.29;75.80;101707.28;5057617;28;20494;-75
2022/06/03 01:56:57;;;;;;;17.70;9.05;;;;;;;11.28;75.40;101702.88;5058215;28;20117;-75
2022/06/03 02:00:00;;;;;;;20.02;7.65;;;;;;;11.28;75.15;101702.88;5058528;28;20123;-75
2022/06/03 02:02:41;;;;;;;19.77;8.75;;;;;;;11.23;76.05;101711.25;5052775;28;20028;-75
2022/06/03 02:05:16;;;;;;;25.08;8.75;;;;;;;11.22;75.20;101697.91;5058335;28;20039;-75
2022/06/03 02:08:15;;;;;;;20.15;9.27;;;;;;;11.18;75.43;101692.69;5056698;28;20060;-75
2022/06/03 02:11:16;;;;;;;18.73;8.57;;;;;;;11.18;75.13;101690.00;5060946;28;20028;-75
2022/06/03 02:13:56;;;;;;;19.38;8.48;;;;;;;11.13;75.57;101684.03;5066583;28;20032;-75
2022/06/03 02:16:31;;;;;;;18.90;8.40;;;;;;;11.11;76.31;101679.72;5055001;28;20037;-75
2022/06/03 02:19:26;;;;;;;21.02;9.85;;;;;;;11.12;75.88;101682.31;5069204;28;20487;-75
2022/06/03 02:22:23;;;;;;;17.67;7.82;;;;;;;11.09;75.41;101695.94;5082967;28;20033;-75
2022/06/03 02:25:26;;;;;;;19.45;8.65;;;;;;;11.06;75.59;101698.84;5068815;28;20040;-75
2022/06/03 02:28:18;;;;;;;19.77;9.13;;;;;;;11.04;75.31;101698.06;5050771;28;20390;-75
2022/06/03 02:31:01;;;;;;;19.40;8.77;;;;;;;11.00;75.76;101694.69;5063817;28;20372;-75
2022/06/03 02:33:42;;;;;;;19.40;9.18;;;;;;;10.94;76.34;101700.47;5061717;28;20040;-75
2022/06/03 02:36:41;;;;;;;19.88;8.45;;;;;;;10.93;76.27;101698.72;5064662;28;20031;-75
2022/06/03 02:39:34;;;;;;;20.55;9.50;;;;;;;10.89;76.21;101696.31;5051121;28;20020;-75
2022/06/03 02:42:34;;;;;;;19.35;9.10;;;;;;;10.83;76.67;101693.06;5066501;28;20033;-75
2022/06/03 02:45:30;;;;;;;19.38;8.93;;;;;;;10.79;77.08;101687.94;5057412;28;20025;-75
2022/06/03 02:48:28;;;;;;;19.27;9.20;;;;;;;10.76;76.64;101680.94;5049509;28;20107;-75
2022/06/03 02:51:20;;;;;;;21.52;9.77;;;;;;;10.75;76.58;101679.19;5054732;28;20039;-75
2022/06/03 02:54:34;;;;;;;19.10;8.82;;;;;;;10.71;77.23;101680.34;5057899;28;20054;-76
2022/06/03 02:57:16;;;;;;;21.05;9.55;;;;;;;10.65;77.75;101680.72;5028595;28;20455;-75
2022/06/03 03:00:14;;;;;;;21.92;8.93;;;;;;;10.65;78.05;101678.03;5068040;28;20534;-75
2022/06/03 03:03:17;;;;;;;19.73;8.85;;;;;;;10.66;77.17;101682.47;5061364;28;20485;-75
2022/06/03 03:06:05;;;;;;;21.67;9.55;;;;;;;10.63;77.51;101682.63;5065371;28;20048;-75
2022/06/03 03:08:49;;;;;;;18.80;9.27;;;;;;;10.59;77.92;101681.09;5055002;28;20086;-75
2022/06/03 03:11:41;;;;;;;20.60;10.18;;;;;;;10.58;77.80;101690.09;5059193;28;20045;-75
2022/06/03 03:14:06;;;;;;;20.63;10.15;;;;;;;10.55;78.28;101682.22;5072634;28;20029;-75
2022/06/03 03:17:02;;;;;;;19.58;8.98;;;;;;;10.56;78.15;101682.13;5072508;28;20040;-75
2022/06/03 03:19:52;;;;;;;19.08;9.82;;;;;;;10.57;78.38;101673.13;5061524;28;20013;-75
2022/06/03 03:22:36;;;;;;;20.10;9.77;;;;;;;10.54;79.05;101667.94;5057504;28;20056;-75
2022/06/03 03:25:01;;;;;;;20.27;9.48;;;;;;;10.56;78.72;101674.06;5060350;28;20024;-75
2022/06/03 03:27:46;;;;;;;21.02;10.40;;;;;;;10.55;78.74;101675.03;5060073;28;20025;-75
2022/06/03 03:30:34;;;;;;;22.65;9.90;;;;;;;10.55;78.72;101660.72;5053812;28;20037;-75
2022/06/03 03:33:25;;;;;;;19.90;9.95;;;;;;;10.52;79.06;101663.59;5065306;28;20472;-75
2022/06/03 03:36:02;;;;;;;20.63;10.00;;;;;;;10.50;79.14;101652.94;5055791;28;20101;-75
2022/06/03 03:38:57;;;;;;;19.75;9.65;;;;;;;10.51;78.73;101661.88;5058039;28;20123;-76
2022/06/03 03:41:50;;;;;;;21.17;10.90;;;;;;;10.52;78.23;101655.53;5060708;28;20032;-75
2022/06/03 03:44:57;;;;;;;18.80;9.38;;;;;;;10.54;78.67;101662.56;5067014;28;20388;-76
2022/06/03 03:47:47;;;;;;;20.10;10.45;;;;;;;10.53;78.41;101658.13;4963001;28;20127;-75
2022/06/03 03:50:18;;;;;;;;;;;;;;;10.60;77.39;101666.69;4967435;28;20156;-75
2022/06/03 03:53:02;;;;;;;;;;;;;;;10.60;77.35;101666.69;4968846;28;19921;-75
2022/06/03 03:55:36;;;;;;;;;;;;;;;10.61;77.32;101666.59;4964875;28;19919;-75
2022/06/03 03:58:37;;;;;;;;;;;;;;;10.62;77.01;101656.72;4963087;28;19933;-75
2022/06/03 04:01:23;;;;;;;;;;;;;;;10.61;77.16;101653.13;4933225;29;20013;-75
2022/06/03 04:03:54;;;;;;;;;;;;;;;10.63;76.98;101653.03;4931771;29;20491;-75
2022/06/03 04:06:19;;;;;;;;;;;;;;;10.66;77.28;101645.69;4933440;29;20342;-75
2022/06/03 04:09:00;;;;;;;;;;;;;;;10.71;76.97;101644.53;4933540;29;19925;-75
2022/06/03 04:11:53;;;;;;;;;;;;;;;10.74;77.17;101644.34;4917050;29;20100;-75
2022/06/03 04:14:32;;;;;;;;;;;;;;;10.78;77.03;101643.22;4916784;29;19958;-76
2022/06/03 04:17:06;;;;;;;;;;;;;;;10.78;76.87;101646.75;4932912;29;20374;-75
2022/06/03 04:19:50;;;;;;;;;;;;;;;10.79;77.05;101637.72;4932111;29;19917;-75
2022/06/03 04:22:15;;;;;;;;;;;;;;;10.81;76.95;101641.19;4932597;29;19918;-75
2022/06/03 04:24:46;;;;;;;;;;;;;;;10.82;76.94;101645.59;4989840;28;19995;-75
2022/06/03 04:27:14;;;;;;;;;;;;;;;10.86;76.93;101637.34;5015646;28;19909;-75
2022/06/03 04:29:48;;;;;;;;;;;;;;;10.89;76.73;101626.41;4997495;28;20329;-75
2022/06/03 04:32:34;;;;;;;;;;;;;;;10.94;76.70;101627.00;5012246;28;19937;-75
2022/06/03 04:34:59;;;;;;;;;;;;;;;10.98;76.82;101625.81;5039743;28;20430;-75
2022/06/03 04:37:40;;;;;;;;;;;;;;;11.00;76.91;101629.28;5070776;28;19912;-75
2022/06/03 04:40:24;;;;;;;;;;;;;;;11.05;76.64;101639.75;5066680;28;19912;-74
2022/06/03 04:42:49;;;;;;;;;;;;;;;11.08;76.56;101645.78;5054669;28;20012;-74
2022/06/03 04:45:46;;;;;;;;;;;;;;;11.11;76.36;101642.94;5065548;28;20431;-74
2022/06/03 04:48:31;;;;;;;;;;;;;;;11.13;76.29;101638.31;5053614;28;19924;-75
2022/06/03 04:51:15;;;;;;;;;;;;;;;11.18;76.31;101649.63;5044258;28;19908;-75
2022/06/03 04:53:59;;;;;;;;;;;;;;;11.23;76.42;101654.75;5061221;28;19927;-75
2022/06/03 04:56:43;;;;;;;;;;;;;;;11.28;76.58;101659.84;5067573;28;19917;-75
2022/06/03 04:59:17;;;;;;;;;;;;;;;11.28;76.69;101655.31;5068010;28;19913;-76
2022/06/03 05:02:01;;;;;;;;;;;;;;;11.32;76.60;101643.38;5056610;28;19919;-75
2022/06/03 05:04:45;;;;;;;;;;;;;;;11.35;77.03;101645.03;5057136;28;19916;-75
2022/06/03 05:07:29;;;;;;;;;;;;;;;11.38;76.69;101650.22;5068058;28;19916;-75
2022/06/03 05:10:10;;;;;;;;;;;;;;;11.42;76.54;101646.38;5059536;28;19912;-75
2022/06/03 05:12:47;;;;;;;;;;;;;;;11.46;76.49;101647.88;5067555;28;19916;-75
2022/06/03 05:15:13;;;;;;;;;;;;;;;11.50;76.45;101643.16;5067343;28;20003;-75
2022/06/03 05:17:57;;;;;;;;;;;;;;;11.56;76.63;101650.00;5065334;28;20015;-75
2022/06/03 05:20:34;;;;;;;;;;;;;;;11.60;76.79;101644.31;5072474;28;20292;-75
2022/06/03 05:23:00;;;;;;;;;;;;;;;11.66;77.00;101645.75;5052471;28;19913;-75
2022/06/03 05:25:43;;;;;;;;;;;;;;;11.70;76.94;101639.19;5063693;28;19912;-75
2022/06/03 05:28:27;;;;;;;;;;;;;;;11.74;77.53;101635.31;5069517;28;20406;-75
2022/06/03 05:31:05;;;;;;;;;;;;;;;11.80;77.39;101636.75;5069323;28;19919;-75
2022/06/03 05:33:55;;;;;;;;;;;;;;;11.86;77.17;101636.34;5063924;28;19924;-75
2022/06/03 05:36:39;;;;;;;;;;;;;;;11.93;76.84;101628.72;5069146;28;19962;-75
2022/06/03 05:39:23;;;;;;;;;;;;;;;12.00;76.13;101636.31;5069875;28;19912;-75
2022/06/03 05:44:54;;;;;;;;;;;;;;;12.14;76.41;101638.09;5063765;28;20015;-75
2022/06/03 05:47:25;;;;;;;;;;;;;;;12.20;76.16;101631.44;5063990;28;19913;-75
2022/06/03 05:50:04;;;;;;;;;;;;;;;12.27;76.18;101629.16;5081248;28;19944;-75
2022/06/03 05:52:33;;;;;;;;;;;;;;;12.33;76.20;101626.03;5063737;28;19916;-75
2022/06/03 05:55:15;;;;;;;;;;;;;;;12.39;75.89;101629.19;5075717;28;19922;-75
2022/06/03 05:57:40;;;;;;;;;;;;;;;12.47;75.86;101628.66;5069601;28;20003;-75
2022/06/03 06:00:16;;;;;;;;;;;;;;;12.53;75.57;101640.84;5072434;28;20062;-75
2022/06/03 06:02:50;;;;;;;;;;;;;;;12.61;75.52;101641.22;5068368;28;19909;-75
2022/06/03 06:05:16;;;;;;;;;;;;;;;12.69;74.74;101632.56;5056960;28;19919;-75
2022/06/03 06:07:50;;;;;;;;;;;;;;;12.74;74.89;101636.69;5070039;28;19912;-75
2022/06/03 06:10:21;;;;;;;;;;;;;;;12.82;74.82;101636.13;5051657;28;19962;-75
2022/06/03 06:12:49;;;;;;;;;;;;;;;12.89;74.72;101631.19;5051394;28;20265;-75
2022/06/03 06:15:20;;;;;;;;;;;;;;;12.96;74.73;101634.28;5053037;28;20562;-75
2022/06/03 06:17:54;;;;;;;;;;;;;;;13.02;74.17;101639.28;5051731;28;19966;-75
2022/06/03 06:20:31;;;;;;;;;;;;;;;13.07;74.65;101643.34;5064974;28;20004;-75
2022/06/03 06:23:02;;;;;;;;;;;;;;;13.13;74.52;101644.75;5070506;28;20050;-75
2022/06/03 06:25:34;;;;;;;;;;;;;;;13.19;74.37;101647.03;5055557;28;19938;-75
2022/06/03 06:28:04;;;;;;;;;;;;;;;13.26;74.38;101645.59;5064052;28;20276;-75
2022/06/03 06:30:48;;;;;;;;;;;;;;;13.33;73.96;101634.38;5049196;28;20287;-75
2022/06/03 06:33:15;;;;;;;;;;;;;;;13.40;73.87;101633.00;5051191;28;19913;-75
2022/06/03 06:35:49;;;;;;;;;;;;;;;13.44;73.43;101639.88;5066939;28;20379;-75
2022/06/03 06:38:33;;;;;;;;;;;;;;;13.51;73.65;101635.75;5067816;28;19913;-75
2022/06/03 06:41:13;;;;;;;;;;;;;;;13.57;73.01;101635.31;5052096;28;19924;-75
2022/06/03 06:43:44;;;;;;;;;;;;;;;13.63;73.12;101632.16;5070812;28;20367;-75
2022/06/03 06:46:12;;;;;;;;;;;;;;;13.70;73.04;101627.16;5062387;28;20012;-75
2022/06/03 06:48:51;;;;;;;;;;;;;;;13.76;72.72;101631.22;5075979;28;19974;-75
2022/06/03 06:51:35;;;;;;;;;;;;;;;13.84;72.47;101630.69;5061626;28;19919;-76
2022/06/03 06:54:15;;;;;;;;;;;;;;;13.92;72.52;101634.50;5073117;28;19982;-76
2022/06/03 06:56:40;;;;;;;;;;;;;;;14.01;70.98;101632.94;5074201;28;20023;-75
2022/06/03 06:59:07;;;;;;;;;;;;;;;14.09;71.45;101635.09;5069427;28;20536;-75
2022/06/03 07:01:36;;;;;;;;;;;;;;;14.13;71.63;101639.31;5071520;28;20090;-76
2022/06/03 07:04:04;;;;;;;;;;;;;;;14.15;71.14;101640.03;5066670;28;19995;-75
2022/06/03 07:06:41;;;;;;;;;;;;;;;14.21;71.34;101639.56;5069735;28;19912;-75
2022/06/03 07:09:10;;;;;;;;;;;;;;;14.28;71.30;101635.41;5068734;28;19977;-75
2022/06/03 07:11:46;;;;;;;;;;;;;;;14.33;71.56;101633.22;5065163;28;20032;-75
2022/06/03 07:14:14;;;;;;;;;;;;;;;14.39;71.20;101636.44;5065449;28;19970;-75
2022/06/03 07:19:57;;;;;;;;;;;;;;;14.51;71.45;101639.06;5071939;28;19928;-75
2022/06/03 07:22:26;;;;;;;;;;;;;;;14.57;71.25;101626.03;5059783;28;19912;-75
2022/06/03 07:24:51;;;;;;;;;;;;;;;14.62;70.79;101622.00;5064515;28;19939;-75
2022/06/03 07:27:22;;;;;;;;;;;;;;;14.66;70.66;101620.78;5066992;28;19912;-75
2022/06/03 07:30:07;;;;;;;;;;;;;;;14.72;71.01;101616.75;5065136;28;19916;-74
2022/06/03 07:32:38;;;;;;;;;;;;;;;14.79;69.77;101619.84;5068773;28;19927;-74
2022/06/03 07:35:07;;;;;;;;;;;;;;;14.85;70.63;101617.50;5066581;28;19924;-74
2022/06/03 07:37:45;;;;;;;;;;;;;;;14.92;70.72;101617.88;5072829;28;19922;-74
2022/06/03 07:40:23;;;;;;;;;;;;;;;14.98;69.72;101614.69;5067547;28;19913;-74
2022/06/03 07:42:58;;;;;;;;;;;;;;;15.06;69.96;101616.75;5064291;28;20287;-75
2022/06/03 07:45:23;;;;;;;;;;;;;;;15.14;69.70;101619.72;5064938;28;19920;-75
2022/06/03 07:47:48;;;;;;;;;;;;;;;15.22;67.93;101618.25;5066869;28;19913;-75
2022/06/03 07:50:18;;;;;;;;;;;;;;;15.27;68.92;101611.47;5073721;28;19938;-76
2022/06/03 07:52:50;;;;;;;;;;;;;;;15.34;69.50;101611.81;5066373;28;19916;-75
2022/06/03 07:55:19;;;;;;;;;;;;;;;15.38;69.49;101613.31;5068447;28;20380;-75
2022/06/03 07:57:52;;;;;;;;;;;;;;;15.44;68.99;101618.22;5065343;28;19912;-75
2022/06/03 08:00:19;;;;;;;;;;;;;;;15.51;69.06;101624.00;5068029;28;19965;-75
2022/06/03 08:02:44;;;;;;;;;;;;;;;15.56;69.24;101613.63;5069252;28;19921;-75
2022/06/03 08:05:09;;;;;;;;;;;;;;;15.63;68.85;101611.28;5068470;28;20355;-75
2022/06/03 08:13:06;;;;;;;;;;;;;;;15.81;68.83;101601.69;5060320;28;19982;-75
2022/06/03 08:15:40;;;;;;;;;;;;;;;15.88;69.42;101588.44;5056579;28;19932;-75
2022/06/03 08:18:06;;;;;;;;;;;;;;;15.96;69.28;101583.25;5059489;28;19920;-75
2022/06/03 08:20:34;;;;;;;;;;;;;;;16.03;68.44;101576.31;5084578;28;19912;-75
2022/06/03 08:23:00;;;;;;;;;;;;;;;16.08;69.08;101579.50;5065983;28;19916;-75
2022/06/03 08:25:26;;;;;;;;;;;;;;;16.14;68.93;101580.81;5070130;28;19934;-75
2022/06/03 08:27:53;;;;;;;;;;;;;;;16.19;68.05;101588.56;5064037;28;20011;-75
2022/06/03 08:30:19;;;;;;;;;;;;;;;16.20;67.97;101580.28;5067688;28;19936;-75
2022/06/03 08:32:47;;;;;;;;;;;;;;;16.24;68.18;101589.88;5062307;28;19922;-74
2022/06/03 08:35:14;;;;;;;;;;;;;;;16.27;68.17;101580.63;5082220;28;19993;-74
2022/06/03 08:37:54;;;;;;;;;;;;;;;16.31;67.94;101584.81;5065244;28;19912;-74
2022/06/03 08:40:34;;;;;;;;;;;;;;;16.36;67.36;101592.53;5065050;28;19920;-74
2022/06/03 08:43:00;;;;;;;;;;;;;;;16.40;67.16;101588.59;5058861;28;20287;-75
2022/06/03 08:45:40;;;;;;;;;;;;;;;16.45;67.86;101571.91;5061453;28;20015;-75
2022/06/03 08:48:12;;;;;;;;;;;;;;;16.48;68.59;101574.34;5066519;28;19928;-75
2022/06/03 08:50:43;;;;;;;;;;;;;;;16.49;66.92;101578.78;5077665;28;19912;-75
2022/06/03 08:53:27;;;;;;;;;;;;;;;16.53;67.34;101586.53;5079140;28;19916;-75
2022/06/03 08:56:13;;;;;;;;;;;;;;;16.62;67.04;101586.69;5064855;28;20194;-75
2022/06/03 08:58:38;;;;;;;;;;;;;;;16.67;66.88;101590.72;5066465;28;19912;-75
2022/06/03 09:01:03;;;;;;;;;;;;;;;16.76;67.45;101586.34;5071827;28;19981;-75
2022/06/03 09:03:30;;;;;;;;;;;;;;;16.83;66.85;101590.25;5053779;28;19947;-75
2022/06/03 09:06:03;;;;;;;;;;;;;;;16.91;67.70;101582.31;5066426;28;20318;-75
2022/06/03 09:08:30;;;;;;;;;;;;;;;16.98;67.79;101582.63;5064846;28;20295;-75
2022/06/03 09:11:00;;;;;;;;;;;;;;;17.01;68.08;101576.91;5064731;28;19912;-75
2022/06/03 09:13:30;;;;;;;;;;;;;;;17.07;67.62;101578.22;5066076;28;19965;-75
2022/06/03 09:15:55;;;;;;;;;;;;;;;17.15;67.09;101577.56;5058276;28;20322;-75
2022/06/03 09:18:27;;;;;;;;;;;;;;;17.19;67.06;101573.53;5068415;28;20006;-75
2022/06/03 09:20:58;;;;;;;;;;;;;;;17.21;65.53;101574.28;5068858;28;19919;-75
2022/06/03 09:23:25;;;;;;;;;;;;;;;17.26;65.96;101589.19;5063977;28;19976;-75
2022/06/03 09:25:54;;;;;;;;;;;;;;;17.26;63.64;101588.28;5070029;28;19920;-75
2022/06/03 09:28:24;;;;;;;;;;;;;;;17.28;64.10;101583.59;5064726;28;20393;-75
2022/06/03 09:30:50;;;;;;;;;;;;;;;17.33;64.26;101575.03;5064873;28;19919;-75
2022/06/03 09:33:18;;;;;;;;;;;;;;;17.38;64.25;101579.06;5063146;28;20295;-75
2022/06/03 09:35:45;;;;;;;;;;;;;;;17.42;64.56;101576.91;5060595;28;20446;-75
2022/06/03 09:38:12;;;;;;;;;;;;;;;17.45;63.01;101579.34;5096632;28;20273;-75
2022/06/03 09:40:41;;;;;;;;;;;;;;;17.50;62.24;101568.03;5067952;28;19913;-75
2022/06/03 09:43:12;;;;;;;;;;;;;;;17.55;62.87;101571.22;5066152;28;19915;-75
2022/06/03 09:45:39;;;;;;;;;;;;;;;17.63;62.42;101574.09;5067593;28;19923;-75
2022/06/03 09:48:04;;;;;;;;;;;;;;;17.67;61.87;101570.06;5065885;28;19984;-75
2022/06/03 09:50:30;;;;;;;;;;;;;;;17.70;61.42;101572.53;5074570;28;20933;-75
2022/06/03 09:53:05;;;;;;;;;;;;;;;17.74;62.91;101571.22;5063028;28;20007;-75
2022/06/03 09:55:33;;;;;;;;;;;;;;;17.82;62.90;101563.22;5064307;28;20268;-75
2022/06/03 09:57:59;;;;;;;;;;;;;;;17.87;61.41;101561.94;5067538;28;19916;-75
2022/06/03 10:00:26;;;;;;;;;;;;;;;17.93;62.10;101553.25;5068123;28;19908;-75
2022/06/03 10:02:56;;;;;;;;;;;;;;;17.99;61.65;101556.25;5062456;28;19916;-75
2022/06/03 10:05:22;;;;;;;;;;;;;;;18.04;59.80;101553.09;5074204;28;19908;-75
2022/06/03 10:07:48;;;;;;;;;;;;;;;18.07;60.93;101550.09;5064427;28;20387;-75
2022/06/03 10:13:04;;;;;;;;;;;;;;;18.14;60.99;101556.66;5061380;28;19927;-75
2022/06/03 10:15:44;;;;;;;;;;;;;;;18.20;60.69;101559.78;5062920;28;19920;-75
2022/06/03 10:18:28;;;;;;;;;;;;;;;18.21;59.38;101554.22;5065699;28;19912;-75
2022/06/03 10:20:54;;;;;;;;;;;;;;;18.24;60.01;101553.06;5064596;28;20472;-75
2022/06/03 10:23:24;;;;;;;;;;;;;;;18.25;57.76;101541.19;5065774;28;20010;-75
2022/06/03 10:25:50;;;;;;;;;;;;;;;18.31;58.00;101525.13;5059536;28;19944;-75
2022/06/03 10:28:16;;;;;;;;;;;;;;;18.41;58.53;101527.81;5060596;28;20009;-75
2022/06/03 10:30:42;;;;;;;;;;;;;;;18.51;57.24;101533.25;5058563;28;20352;-74
2022/06/03 10:33:28;;;;;;;;;;;;;;;18.51;55.52;101528.66;5066444;28;20004;-75
2022/06/03 10:35:55;;;;;;;;;;;;;;;18.55;55.06;101520.19;5063520;28;19982;-75
2022/06/03 10:38:21;;;;;;;;;;;;;;;18.55;57.19;101523.78;5065854;28;19924;-75
2022/06/03 10:40:48;;;;;;;;;;;;;;;18.55;55.32;101523.78;5062556;28;19951;-75
2022/06/03 10:43:19;;;;;;;;;;;;;;;18.57;54.81;101520.91;5059933;28;19955;-75
2022/06/03 10:45:44;;;;;;;;;;;;;;;18.63;55.61;101532.06;5069094;28;19908;-76
2022/06/03 10:48:19;;;;;;;;;;;;;;;18.69;55.63;101536.03;5067246;28;19947;-76
2022/06/03 10:50:44;;;;;;;;;;;;;;;18.78;56.82;101526.13;5071240;28;19909;-75
2022/06/03 11:01:06;;;;;;;;;;;;;;;18.93;55.89;101526.50;5060100;28;19920;-75
2022/06/03 11:01:51;;;;;;;;;;;;;;;19.04;54.16;101515.41;5063656;28;20480;-75
2022/06/03 11:04:37;;;;;;;;;;;;;;;19.04;54.14;101516.28;5069616;28;19919;-75
2022/06/03 11:07:22;;;;;;;;;;;;;;;19.13;51.36;101521.81;5069657;28;19912;-75
2022/06/03 11:09:55;;;;;;;;;;;;;;;19.24;49.95;101509.84;5061644;28;19974;-75
2022/06/03 11:12:24;;;;;;;;;;;;;;;19.28;52.91;101508.53;5051956;28;20007;-75
2022/06/03 11:14:49;;;;;;;;;;;;;;;19.31;52.18;101509.09;5060741;28;20365;-75
2022/06/03 11:17:19;;;;;;;;;;;;;;;19.36;51.19;101512.22;5051041;28;19915;-75
2022/06/03 11:19:52;;;;;;;;;;;;;;;19.45;52.03;101512.31;5057371;28;19920;-75
2022/06/03 11:22:20;;;;;;;;;;;;;;;19.48;51.63;101507.38;5065915;28;19908;-75
2022/06/03 11:24:57;;;;;;;;;;;;;;;19.51;49.69;101504.34;5074438;28;19920;-75
2022/06/03 11:27:26;;;;;;;;;;;;;;;19.51;52.31;101498.91;5060760;28;19934;-75
2022/06/03 11:29:55;;;;;;;;;;;;;;;19.55;49.54;101497.56;5066401;28;20364;-76
2022/06/03 11:32:20;;;;;;;;;;;;;;;19.63;48.66;101498.66;5071206;28;20337;-75
2022/06/03 11:34:54;;;;;;;;;;;;;;;19.65;50.24;101494.78;5079433;28;20007;-75
2022/06/03 11:37:25;;;;;;;;;;;;;;;19.63;50.26;101498.66;5058086;28;19981;-75
2022/06/03 11:39:59;;;;;;;;;;;;;;;19.65;47.67;101499.34;5087741;28;19955;-75
2022/06/03 11:42:30;;;;;;;;;;;;;;;19.71;50.94;101490.56;5054446;28;20376;-75
2022/06/03 11:45:10;;;;;;;;;;;;;;;19.74;50.60;101493.81;5083889;28;19984;-75
2022/06/03 11:48:01;;;;;;;;;;;;;;;19.77;51.04;101492.66;5054551;28;20352;-75
2022/06/03 11:50:28;;;;;;;;;;;;;;;19.85;50.89;101511.00;5074409;28;19917;-76
2022/06/03 11:52:54;;;;;;;;;;;;;;;19.91;50.48;101496.72;5060052;28;19917;-75
2022/06/03 11:55:20;;;;;;;;;;;;;;;19.89;49.44;101510.50;5056083;28;20388;-75
2022/06/03 11:57:50;;;;;;;;;;;;;;;19.94;49.06;101503.72;5056670;28;20003;-75
2022/06/03 12:00:19;;;;;;;;;;;;;;;19.95;50.75;101517.22;5063792;28;19916;-75
2022/06/03 12:02:44;;;;;;;;;;;;;;;19.96;49.71;101512.63;5059169;28;19916;-75
2022/06/03 12:05:14;;;;;;;;;;;;;;;19.97;48.08;101509.75;5064387;28;19985;-75
2022/06/03 12:07:45;;;;;;;;;;;;;;;20.02;48.05;101510.13;5059607;28;19973;-76
2022/06/03 12:10:22;;;;;;;;;;;;;;;20.07;49.91;101504.19;5058276;28;20039;-75
2022/06/03 12:15:35;;;;;;;;;;;;;;;20.18;50.23;101497.63;5071564;28;19923;-75
2022/06/03 12:18:06;;;;;;;;;;;;;;;20.20;49.68;101485.50;5068802;28;19912;-75
2022/06/03 12:20:31;;;;;;;;;;;;;;;20.22;50.94;101486.22;5071670;28;20288;-75
2022/06/03 12:22:57;;;;;;;;;;;;;;;20.27;51.64;101487.63;5069080;28;19928;-75
2022/06/03 12:25:28;;;;;;;;;;;;;;;20.27;50.92;101485.72;5070264;28;20002;-75
2022/06/03 12:27:54;;;;;;;;;;;;;;;20.30;49.16;101481.84;5066955;28;19946;-78
2022/06/03 12:30:26;;;;;;;;;;;;;;;20.34;49.81;101472.31;5067985;28;19946;-75
2022/06/03 12:32:55;;;;;;;;;;;;;;;20.36;50.86;101476.56;5069139;28;19970;-75
2022/06/03 12:35:39;;;;;;;;;;;;;;;20.38;49.11;101469.09;5071151;28;20232;-75
2022/06/03 12:38:19;;;;;;;;;;;;;;;20.43;49.49;101469.44;5068451;28;20284;-75
2022/06/03 12:40:46;;;;;;;;;;;;;;;20.53;50.76;101469.34;5063187;28;20442;-75
2022/06/03 12:43:29;;;;;;;;;;;;;;;20.60;52.18;101462.19;5067604;28;19954;-75
2022/06/03 12:46:07;;;;;;;;;;;;;;;20.66;51.94;101468.00;5069485;28;20378;-75
2022/06/03 12:48:45;;;;;;;;;;;;;;;20.65;49.52;101463.59;5071083;28;20241;-75
2022/06/03 12:51:19;;;;;;;;;;;;;;;20.72;49.72;101464.69;5065223;28;20383;-75
2022/06/03 12:53:45;;;;;;;;;;;;;;;20.80;50.43;101461.97;5064146;28;19912;-75
2022/06/03 12:56:20;;;;;;;;;;;;;;;20.85;49.83;101464.19;5070897;28;19923;-75
2022/06/03 12:58:52;;;;;;;;;;;;;;;20.89;50.33;101469.16;5070571;28;20372;-75
2022/06/03 13:01:40;;;;;;;;;;;;;;;20.95;50.09;101465.78;5062887;28;19917;-75
2022/06/03 13:04:24;;;;;;;;;;;;;;;20.95;46.47;101453.97;5049570;28;20264;-74
2022/06/03 13:07:08;;;;;;;;;;;;;;;21.02;47.88;101454.19;5054665;28;19912;-73
2022/06/03 13:09:49;;;;;;;;;;;;;;;21.10;48.45;101455.06;5067650;28;19927;-73
2022/06/03 13:12:25;;;;;;;;;;;;;;;21.18;48.75;101458.84;5052376;28;20330;-73
2022/06/03 13:14:51;;;;;;;;;;;;;;;21.24;48.37;101453.53;5057088;28;19912;-74
2022/06/03 13:17:35;;;;;;;;;;;;;;;21.25;49.07;101444.31;5057441;28;19931;-74
2022/06/03 13:20:00;;;;;;;;;;;;;;;21.33;46.27;101453.56;5068537;28;19996;-74
2022/06/03 13:22:29;;;;;;;;;;;;;;;21.38;48.22;101448.47;5072219;28;20351;-74
2022/06/03 13:25:14;;;;;;;;;;;;;;;21.40;48.28;101452.72;5076196;28;19923;-74